Time;durP1;ratioP1;P1;durP2;ratioP2;P2;SDS_P1;SDS_P2;PMS_P1;PMS_P2;Temp;Humidity;BMP_temperature;BMP_pressure;BME280_temperature;BME280_humidity;BME280_pressure;Samples;Min_cycle;Max_cycle;Signal;HPM_P1;HPM_P2
2021/01/15 00:01:20;;;;;;;16.37;11.77;;;5.50;93.90;;;;;;5055154;28;20229;-75
2021/01/15 00:03:46;;;;;;;15.10;12.10;;;5.60;93.70;;;;;;5055661;28;20178;-75
2021/01/15 00:06:21;;;;;;;16.83;12.50;;;5.50;93.50;;;;;;5054953;28;20270;-76
2021/01/15 00:08:47;;;;;;;15.77;12.02;;;5.50;93.70;;;;;;5054380;28;20173;-76
2021/01/15 00:11:33;;;;;;;14.38;12.20;;;5.60;93.70;;;;;;5055439;28;20189;-76
2021/01/15 00:14:00;;;;;;;17.58;12.55;;;5.50;93.50;;;;;;5055533;28;20170;-74
2021/01/15 00:16:28;;;;;;;14.43;11.85;;;5.60;93.60;;;;;;5051475;28;20264;-75
2021/01/15 00:18:55;;;;;;;13.13;11.18;;;5.50;93.70;;;;;;5054474;28;20181;-74
2021/01/15 00:21:26;;;;;;;16.00;11.07;;;5.50;93.40;;;;;;5053797;28;20690;-74
2021/01/15 00:23:54;;;;;;;14.50;11.75;;;5.50;93.20;;;;;;5053890;28;20265;-73
2021/01/15 00:26:23;;;;;;;13.95;11.85;;;5.50;93.10;;;;;;5054115;28;20228;-74
2021/01/15 00:28:49;;;;;;;13.10;10.73;;;5.50;93.00;;;;;;5064470;28;20189;-75
2021/01/15 00:31:15;;;;;;;15.05;10.40;;;5.50;92.80;;;;;;5073809;28;20526;-75
2021/01/15 00:33:41;;;;;;;13.40;10.30;;;5.50;92.90;;;;;;5061958;28;20174;-75
2021/01/15 00:36:08;;;;;;;11.43;9.80;;;5.40;92.60;;;;;;5053168;28;20215;-75
2021/01/15 00:38:34;;;;;;;11.27;9.65;;;5.40;92.20;;;;;;5054036;28;20185;-74
2021/01/15 00:41:01;;;;;;;12.20;9.68;;;5.40;91.90;;;;;;5053626;28;20213;-74
2021/01/15 00:43:27;;;;;;;12.30;10.07;;;5.20;92.00;;;;;;5035545;28;20245;-74
2021/01/15 00:45:53;;;;;;;10.77;9.50;;;5.30;91.90;;;;;;5053863;28;20178;-74
2021/01/15 00:48:19;;;;;;;14.20;10.27;;;5.40;92.00;;;;;;5049718;28;20192;-74
2021/01/15 00:50:45;;;;;;;10.40;9.30;;;5.50;91.70;;;;;;5052873;28;20950;-75
2021/01/15 00:53:11;;;;;;;10.90;9.60;;;5.40;91.30;;;;;;5055131;28;20478;-73
2021/01/15 00:55:37;;;;;;;10.53;9.40;;;5.40;91.20;;;;;;5053382;28;20399;-73
2021/01/15 00:58:03;;;;;;;11.87;9.23;;;5.30;90.90;;;;;;5053244;28;20197;-74
2021/01/15 01:00:29;;;;;;;10.83;8.40;;;5.30;91.30;;;;;;5053530;28;20488;-73
2021/01/15 01:02:56;;;;;;;10.40;8.52;;;5.20;90.60;;;;;;5054421;28;20409;-73
2021/01/15 01:05:22;;;;;;;8.68;7.70;;;5.20;90.50;;;;;;5053121;28;20523;-73
2021/01/15 01:07:49;;;;;;;8.60;7.80;;;5.20;90.10;;;;;;5052921;28;20190;-74
2021/01/15 01:10:15;;;;;;;11.68;8.82;;;5.20;90.30;;;;;;5054383;28;20257;-73
2021/01/15 01:12:41;;;;;;;11.30;8.90;;;5.30;90.10;;;;;;5052678;28;20489;-73
2021/01/15 01:15:13;;;;;;;8.63;7.68;;;5.30;90.00;;;;;;5053681;28;20929;-74
2021/01/15 01:17:39;;;;;;;9.05;7.82;;;5.30;90.40;;;;;;5048061;28;20181;-74
2021/01/15 01:20:08;;;;;;;8.88;7.97;;;5.40;90.00;;;;;;5053858;28;20296;-73
2021/01/15 01:22:34;;;;;;;9.35;8.05;;;5.40;89.20;;;;;;5053106;28;20599;-74
2021/01/15 01:24:59;;;;;;;10.10;8.57;;;5.40;89.10;;;;;;5052259;28;20198;-73
2021/01/15 01:27:25;;;;;;;9.30;7.77;;;5.40;88.60;;;;;;5052978;28;20185;-74
2021/01/15 01:29:51;;;;;;;9.30;8.40;;;5.40;89.50;;;;;;5049665;28;20409;-75
2021/01/15 01:32:17;;;;;;;12.20;8.60;;;5.40;88.40;;;;;;5039467;28;20205;-75
2021/01/15 01:34:43;;;;;;;9.48;8.48;;;5.30;87.80;;;;;;5052660;28;21241;-74
2021/01/15 01:37:09;;;;;;;11.13;8.97;;;5.30;87.60;;;;;;5054304;28;20178;-74
2021/01/15 01:39:35;;;;;;;8.90;8.10;;;5.30;88.20;;;;;;5052883;28;20254;-74
2021/01/15 01:42:00;;;;;;;10.87;8.90;;;5.30;88.00;;;;;;5053884;28;20189;-74
2021/01/15 01:44:26;;;;;;;9.00;7.80;;;5.40;87.10;;;;;;5051536;28;20233;-74
2021/01/15 01:46:53;;;;;;;8.50;7.60;;;5.40;86.60;;;;;;5053669;28;20638;-72
2021/01/15 01:49:20;;;;;;;8.68;7.80;;;5.50;86.10;;;;;;5053619;28;20308;-74
2021/01/15 01:51:48;;;;;;;10.32;8.10;;;5.40;85.50;;;;;;5051467;28;20185;-75
2021/01/15 01:54:14;;;;;;;9.60;8.25;;;5.00;84.80;;;;;;5052250;28;20260;-75
2021/01/15 01:56:41;;;;;;;8.77;7.85;;;5.00;86.10;;;;;;5052911;28;20234;-75
2021/01/15 01:59:09;;;;;;;9.88;8.60;;;5.20;85.90;;;;;;5052253;28;20630;-75
2021/01/15 02:01:35;;;;;;;11.20;8.60;;;5.30;86.80;;;;;;5051538;28;20701;-75
2021/01/15 02:04:02;;;;;;;9.23;8.33;;;5.30;86.30;;;;;;5051747;28;20189;-76
2021/01/15 02:06:28;;;;;;;10.98;8.63;;;5.30;85.80;;;;;;5052368;28;20185;-76
2021/01/15 02:08:54;;;;;;;10.20;8.63;;;5.40;85.80;;;;;;5043672;28;20528;-76
2021/01/15 02:11:31;;;;;;;11.15;8.57;;;5.50;85.50;;;;;;5061556;28;20188;-75
2021/01/15 02:14:34;;;;;;;9.48;7.85;;;5.50;84.40;;;;;;5050195;28;20184;-76
2021/01/15 02:17:01;;;;;;;10.68;8.20;;;5.50;85.00;;;;;;5053805;28;20192;-76
2021/01/15 02:19:51;;;;;;;9.13;8.13;;;5.50;84.80;;;;;;5051794;28;20174;-76
2021/01/15 02:22:53;;;;;;;9.55;8.30;;;5.40;84.80;;;;;;5060879;28;20162;-75
2021/01/15 02:25:47;;;;;;;9.40;7.75;;;5.40;84.80;;;;;;5061391;28;20181;-76
2021/01/15 02:28:50;;;;;;;9.15;7.53;;;5.40;85.20;;;;;;5059485;28;20267;-76
2021/01/15 02:31:49;;;;;;;9.45;8.55;;;5.40;85.30;;;;;;5060373;28;20243;-76
2021/01/15 02:34:52;;;;;;;9.80;8.80;;;5.40;85.30;;;;;;5060229;28;20176;-76
2021/01/15 02:37:42;;;;;;;11.40;9.18;;;5.40;84.70;;;;;;5060904;28;20640;-76
2021/01/15 02:40:23;;;;;;;9.70;8.70;;;5.50;84.70;;;;;;5041192;28;20301;-76
2021/01/15 02:42:51;;;;;;;10.60;8.50;;;5.50;85.50;;;;;;5030876;28;20258;-76
2021/01/15 02:45:18;;;;;;;10.68;9.57;;;5.50;86.00;;;;;;5043717;28;20658;-76
2021/01/15 02:47:48;;;;;;;14.43;9.20;;;5.30;86.60;;;;;;5051922;28;20724;-76
2021/01/15 02:50:24;;;;;;;9.90;8.88;;;5.30;87.50;;;;;;5052674;28;20584;-76
2021/01/15 02:52:51;;;;;;;11.63;9.80;;;5.30;87.10;;;;;;5052089;28;20166;-76
2021/01/15 02:55:17;;;;;;;10.82;9.70;;;5.30;86.70;;;;;;5052444;28;20669;-76
2021/01/15 02:57:43;;;;;;;13.85;10.13;;;5.30;86.20;;;;;;5047089;28;20184;-76
2021/01/15 03:00:18;;;;;;;11.88;9.93;;;5.40;87.30;;;;;;5052901;28;20561;-76
2021/01/15 03:03:12;;;;;;;13.38;9.98;;;5.50;86.00;;;;;;5052358;28;20174;-76
2021/01/15 03:05:43;;;;;;;10.40;8.77;;;5.50;85.90;;;;;;5051312;28;20185;-76
2021/01/15 03:08:09;;;;;;;10.48;9.32;;;5.50;86.20;;;;;;5052430;28;20249;-76
2021/01/15 03:10:36;;;;;;;12.75;9.60;;;5.60;85.60;;;;;;5051100;28;20181;-76
2021/01/15 03:13:06;;;;;;;11.60;9.50;;;5.60;84.80;;;;;;5052241;28;20266;-76
2021/01/15 03:15:36;;;;;;;11.70;9.30;;;5.60;84.50;;;;;;5051534;28;20228;-76
2021/01/15 03:18:03;;;;;;;9.68;8.07;;;5.70;84.20;;;;;;5051789;28;20296;-76
2021/01/15 03:20:30;;;;;;;10.52;9.43;;;5.70;84.40;;;;;;5046542;28;20618;-76
2021/01/15 03:22:57;;;;;;;10.55;9.30;;;5.70;84.40;;;;;;5051556;28;20513;-76
2021/01/15 03:25:22;;;;;;;12.20;10.80;;;5.60;84.90;;;;;;5052381;28;20546;-76
2021/01/15 03:27:53;;;;;;;14.13;11.30;;;5.60;86.70;;;;;;5051338;28;20174;-76
2021/01/15 03:30:27;;;;;;;14.18;11.38;;;5.60;88.40;;;;;;5051643;28;20851;-76
2021/01/15 03:32:59;;;;;;;12.27;10.98;;;5.70;89.10;;;;;;5051729;28;20185;-76
2021/01/15 03:35:26;;;;;;;16.95;12.85;;;5.60;90.10;;;;;;5051733;28;20174;-75
2021/01/15 03:38:10;;;;;;;16.63;12.73;;;5.60;90.90;;;;;;5050992;28;20184;-76
2021/01/15 03:40:41;;;;;;;16.20;12.85;;;5.50;91.10;;;;;;5031110;28;20209;-76
2021/01/15 03:43:14;;;;;;;15.65;13.15;;;5.50;91.60;;;;;;5031990;28;20233;-76
2021/01/15 03:45:42;;;;;;;15.95;11.90;;;5.50;92.20;;;;;;5031319;28;20166;-76
2021/01/15 03:48:09;;;;;;;16.80;13.52;;;5.60;92.30;;;;;;5032317;28;20625;-75
2021/01/15 03:50:35;;;;;;;15.68;12.80;;;5.60;92.30;;;;;;5041161;28;20188;-76
2021/01/15 03:53:01;;;;;;;18.27;12.73;;;5.60;92.70;;;;;;5051895;28;20174;-75
2021/01/15 03:55:27;;;;;;;17.37;13.87;;;5.60;92.90;;;;;;5051844;28;20255;-76
2021/01/15 03:57:53;;;;;;;15.97;13.17;;;5.70;92.80;;;;;;5051312;28;20174;-76
2021/01/15 04:00:19;;;;;;;18.50;14.13;;;5.70;93.40;;;;;;5051912;28;20989;-76
2021/01/15 04:02:44;;;;;;;17.38;13.65;;;5.70;93.20;;;;;;5051092;28;20591;-76
2021/01/15 04:05:13;;;;;;;19.03;14.07;;;5.70;93.40;;;;;;5051520;28;20206;-76
2021/01/15 04:07:42;;;;;;;20.85;14.38;;;5.70;94.10;;;;;;5051147;28;20178;-76
2021/01/15 04:10:11;;;;;;;17.40;13.38;;;5.70;94.10;;;;;;5051734;28;20174;-76
2021/01/15 04:12:38;;;;;;;21.08;14.88;;;5.70;94.10;;;;;;5050826;28;20181;-76
2021/01/15 04:15:06;;;;;;;18.23;14.63;;;5.70;94.10;;;;;;5051603;28;20174;-76
2021/01/15 04:17:32;;;;;;;19.13;15.07;;;5.60;94.20;;;;;;5050390;28;20255;-77
2021/01/15 04:19:58;;;;;;;22.10;15.85;;;5.40;94.70;;;;;;5051266;28;20219;-75
2021/01/15 04:22:24;;;;;;;20.47;16.00;;;5.30;95.10;;;;;;5054105;28;20174;-76
2021/01/15 04:24:49;;;;;;;21.57;16.10;;;5.00;95.90;;;;;;5054203;28;20261;-75
2021/01/15 04:27:15;;;;;;;21.23;14.80;;;5.00;96.30;;;;;;5055355;28;20217;-75
2021/01/15 04:29:41;;;;;;;19.57;15.53;;;4.90;96.80;;;;;;5054434;28;20174;-76
2021/01/15 04:32:06;;;;;;;25.03;15.70;;;4.90;96.90;;;;;;5055071;28;20238;-76
2021/01/15 04:34:32;;;;;;;23.73;16.30;;;4.90;96.80;;;;;;5054537;28;20629;-76
2021/01/15 04:36:58;;;;;;;21.03;14.57;;;4.60;97.20;;;;;;5055312;28;20226;-76
2021/01/15 04:39:24;;;;;;;23.95;16.67;;;4.50;97.60;;;;;;5053817;28;20189;-76
2021/01/15 04:41:52;;;;;;;21.73;16.20;;;4.50;97.90;;;;;;5054023;28;20687;-76
2021/01/15 04:44:18;;;;;;;24.92;15.88;;;4.60;98.50;;;;;;5054461;28;20511;-76
2021/01/15 04:46:45;;;;;;;22.33;16.48;;;4.60;97.90;;;;;;5054199;28;20549;-76
2021/01/15 04:49:12;;;;;;;21.63;15.90;;;4.60;97.90;;;;;;5054998;28;20200;-76
2021/01/15 04:51:41;;;;;;;23.10;16.30;;;4.40;98.10;;;;;;5053810;28;20188;-76
2021/01/15 04:54:11;;;;;;;21.55;14.85;;;4.50;98.20;;;;;;5053000;28;20516;-75
2021/01/15 04:56:39;;;;;;;22.42;16.52;;;4.50;98.10;;;;;;5053664;28;20729;-76
2021/01/15 04:59:08;;;;;;;26.25;17.77;;;4.50;98.10;;;;;;5054476;28;20219;-76
2021/01/15 05:01:36;;;;;;;21.17;16.05;;;4.60;98.30;;;;;;5054061;28;20205;-76
2021/01/15 05:04:06;;;;;;;21.98;16.00;;;4.70;98.20;;;;;;5054377;28;20239;-76
2021/01/15 05:06:42;;;;;;;25.58;17.45;;;4.80;97.60;;;;;;5054365;28;20233;-76
2021/01/15 05:09:14;;;;;;;22.67;17.35;;;4.70;97.40;;;;;;5053569;28;20165;-76
2021/01/15 05:11:42;;;;;;;20.70;14.98;;;4.80;98.00;;;;;;5052603;28;20177;-76
2021/01/15 05:14:10;;;;;;;22.02;15.85;;;4.70;97.50;;;;;;5054438;28;20177;-75
2021/01/15 05:16:40;;;;;;;28.65;16.67;;;4.60;97.80;;;;;;5053803;28;20583;-76
2021/01/15 05:19:07;;;;;;;26.90;17.45;;;4.50;98.10;;;;;;5053479;28;20262;-75
2021/01/15 05:21:34;;;;;;;23.75;15.55;;;4.50;98.40;;;;;;5053478;28;20602;-76
2021/01/15 05:24:00;;;;;;;25.33;16.92;;;4.60;98.10;;;;;;5053743;28;20209;-76
2021/01/15 05:26:27;;;;;;;23.85;16.05;;;4.50;98.00;;;;;;5054245;28;20217;-75
2021/01/15 05:28:53;;;;;;;22.52;15.10;;;4.40;98.40;;;;;;5052300;28;20623;-76
2021/01/15 05:31:20;;;;;;;25.50;17.63;;;4.30;98.80;;;;;;5054110;28;20530;-76
2021/01/15 05:34:16;;;;;;;27.95;18.33;;;4.30;99.10;;;;;;5052915;28;20264;-76
2021/01/15 05:36:42;;;;;;;25.00;16.08;;;4.50;98.80;;;;;;5048308;28;20232;-76
2021/01/15 05:39:19;;;;;;;25.27;16.70;;;4.50;98.20;;;;;;5052514;28;20173;-76
2021/01/15 05:41:46;;;;;;;26.85;16.85;;;4.20;98.60;;;;;;5053165;28;20197;-76
2021/01/15 05:44:30;;;;;;;24.80;18.00;;;4.20;99.40;;;;;;5053733;28;20221;-75
2021/01/15 05:46:58;;;;;;;27.50;18.13;;;4.40;99.30;;;;;;5052914;28;20762;-76
2021/01/15 05:49:24;;;;;;;25.02;17.17;;;4.40;98.70;;;;;;5053187;28;20192;-76
2021/01/15 05:51:50;;;;;;;27.13;16.90;;;4.30;98.90;;;;;;5052654;28;20538;-76
2021/01/15 05:54:30;;;;;;;24.33;16.67;;;4.10;99.30;;;;;;5053722;28;20189;-76
2021/01/15 05:56:57;;;;;;;24.67;17.35;;;4.10;99.50;;;;;;5052662;28;20361;-76
2021/01/15 05:59:22;;;;;;;25.80;17.20;;;4.10;99.40;;;;;;5053648;28;20539;-76
2021/01/15 06:02:05;;;;;;;28.60;17.83;;;4.00;99.60;;;;;;5052634;28;20178;-76
2021/01/15 06:04:35;;;;;;;27.60;17.77;;;4.10;99.40;;;;;;5053591;28;20162;-76
2021/01/15 06:07:01;;;;;;;23.17;15.30;;;4.00;99.90;;;;;;5053177;28;20183;-76
2021/01/15 06:09:27;;;;;;;26.05;17.17;;;4.00;99.90;;;;;;5052237;28;20260;-76
2021/01/15 06:12:06;;;;;;;24.33;17.40;;;4.10;99.80;;;;;;5052586;28;20209;-76
2021/01/15 06:14:33;;;;;;;25.65;16.00;;;4.00;99.90;;;;;;5053424;28;20173;-76
2021/01/15 06:17:07;;;;;;;25.20;17.45;;;4.10;99.70;;;;;;5052113;28;20173;-76
2021/01/15 06:19:44;;;;;;;25.90;17.42;;;4.00;99.40;;;;;;5052663;28;20255;-76
2021/01/15 06:22:44;;;;;;;21.88;15.40;;;3.90;99.60;;;;;;5053451;28;20231;-75
2021/01/15 06:25:21;;;;;;;25.42;18.75;;;3.90;99.70;;;;;;5052824;28;20217;-75
2021/01/15 06:27:48;;;;;;;25.77;15.88;;;4.00;99.70;;;;;;5052580;28;20181;-76
2021/01/15 06:30:19;;;;;;;22.48;16.55;;;4.00;99.90;;;;;;5051317;28;20190;-76
2021/01/15 06:32:46;;;;;;;25.65;16.70;;;4.20;99.60;;;;;;5051982;28;20211;-76
2021/01/15 06:35:36;;;;;;;26.10;17.40;;;4.20;99.10;;;;;;5052878;28;20174;-76
2021/01/15 06:38:07;;;;;;;28.65;19.27;;;4.20;99.00;;;;;;5052163;28;20175;-76
2021/01/15 06:40:40;;;;;;;23.63;17.15;;;4.30;98.70;;;;;;5032965;28;20193;-76
2021/01/15 06:43:09;;;;;;;24.65;16.70;;;4.40;98.80;;;;;;5032613;28;20236;-76
2021/01/15 06:45:44;;;;;;;26.48;17.50;;;4.60;98.50;;;;;;5042329;28;20207;-76
2021/01/15 06:48:15;;;;;;;26.88;18.15;;;4.50;98.20;;;;;;5052661;28;20180;-77
2021/01/15 06:50:46;;;;;;;24.77;17.25;;;4.40;98.30;;;;;;5049667;28;20173;-76
2021/01/15 06:53:22;;;;;;;27.02;18.48;;;4.40;98.50;;;;;;5052381;28;20191;-76
2021/01/15 06:55:56;;;;;;;26.77;17.95;;;4.50;98.30;;;;;;5050633;28;20581;-76
2021/01/15 06:58:26;;;;;;;30.92;20.35;;;4.50;98.30;;;;;;5052436;28;20173;-76
2021/01/15 07:01:17;;;;;;;29.10;18.70;;;4.60;98.20;;;;;;5051117;28;20296;-76
2021/01/15 07:04:20;;;;;;;27.15;16.85;;;4.60;98.00;;;;;;5051545;28;20192;-76
2021/01/15 07:07:04;;;;;;;31.08;19.77;;;4.70;97.80;;;;;;5061004;28;20532;-76
2021/01/15 07:09:31;;;;;;;32.00;19.27;;;4.70;97.80;;;;;;5048714;28;20200;-76
2021/01/15 07:12:07;;;;;;;27.67;18.05;;;4.70;97.60;;;;;;5051674;28;20185;-76
2021/01/15 07:14:43;;;;;;;28.63;18.00;;;4.80;97.80;;;;;;5050266;28;20226;-76
2021/01/15 07:17:37;;;;;;;26.67;17.92;;;4.80;97.50;;;;;;5052219;28;20173;-76
2021/01/15 07:20:08;;;;;;;28.85;18.90;;;4.90;97.50;;;;;;5053787;28;20221;-76
2021/01/15 07:22:51;;;;;;;28.08;19.63;;;4.90;97.10;;;;;;5052134;28;20253;-75
2021/01/15 07:25:21;;;;;;;25.95;17.83;;;5.00;97.00;;;;;;5032391;28;20677;-76
2021/01/15 07:27:47;;;;;;;26.70;18.10;;;5.10;97.10;;;;;;5035189;28;20185;-76
2021/01/15 07:30:31;;;;;;;27.30;18.70;;;5.00;97.00;;;;;;5052176;28;20221;-76
2021/01/15 07:32:58;;;;;;;27.17;18.10;;;5.00;97.20;;;;;;5049752;28;20186;-76
2021/01/15 07:35:27;;;;;;;28.85;18.05;;;5.00;97.10;;;;;;5051765;28;20173;-75
2021/01/15 07:38:08;;;;;;;27.83;17.90;;;5.10;96.80;;;;;;5051038;28;20205;-76
2021/01/15 07:40:35;;;;;;;28.90;20.33;;;5.10;97.10;;;;;;5051833;28;20554;-76
2021/01/15 07:43:02;;;;;;;27.45;18.42;;;5.10;96.60;;;;;;5050936;28;20222;-76
2021/01/15 07:45:28;;;;;;;26.33;19.55;;;5.10;96.50;;;;;;5052118;28;20205;-75
2021/01/15 07:48:05;;;;;;;25.20;18.70;;;4.90;96.70;;;;;;5049922;28;20217;-78
2021/01/15 07:50:33;;;;;;;29.55;18.00;;;4.90;97.00;;;;;;5046549;28;20536;-75
2021/01/15 07:53:15;;;;;;;24.92;18.02;;;4.90;97.10;;;;;;5065920;28;20180;-75
2021/01/15 07:55:48;;;;;;;27.73;18.15;;;4.90;97.30;;;;;;5073693;28;20165;-75
2021/01/15 07:58:15;;;;;;;22.05;16.25;;;4.90;97.20;;;;;;5076372;28;20176;-74
2021/01/15 08:00:41;;;;;;;27.73;18.30;;;4.80;97.20;;;;;;5058505;28;20194;-75
2021/01/15 08:03:07;;;;;;;25.70;17.75;;;4.90;97.30;;;;;;5058214;28;20847;-76
2021/01/15 08:05:33;;;;;;;27.08;18.33;;;5.00;97.20;;;;;;5054608;28;20661;-75
2021/01/15 08:08:13;;;;;;;27.43;18.23;;;5.00;97.20;;;;;;5054645;28;20178;-76
2021/01/15 08:10:45;;;;;;;31.92;18.50;;;4.90;97.20;;;;;;5060937;28;20521;-77
2021/01/15 08:13:19;;;;;;;28.20;20.27;;;4.90;97.40;;;;;;5053341;28;20185;-78
2021/01/15 08:15:46;;;;;;;27.98;18.05;;;4.80;97.50;;;;;;5054916;28;20661;-78
2021/01/15 08:18:13;;;;;;;27.55;18.65;;;4.60;98.10;;;;;;5054522;28;20181;-78
2021/01/15 08:20:43;;;;;;;23.38;16.23;;;4.70;98.20;;;;;;5059973;28;20194;-78
2021/01/15 08:23:20;;;;;;;24.45;17.58;;;4.70;98.20;;;;;;5063787;28;20275;-78
2021/01/15 08:25:48;;;;;;;25.98;18.20;;;4.60;98.20;;;;;;5060713;28;20180;-85
2021/01/15 08:28:14;;;;;;;23.85;16.35;;;4.60;98.20;;;;;;5053972;28;20177;-83
2021/01/15 08:30:40;;;;;;;26.60;18.30;;;4.50;98.50;;;;;;5054303;28;20185;-83
2021/01/15 08:33:06;;;;;;;24.88;17.55;;;4.40;98.90;;;;;;5053452;28;20504;-83
2021/01/15 08:35:33;;;;;;;24.23;17.23;;;4.20;99.20;;;;;;5049973;28;20185;-83
2021/01/15 08:37:59;;;;;;;24.00;17.73;;;4.20;99.40;;;;;;5083905;28;20412;-83
2021/01/15 08:40:27;;;;;;;24.73;17.30;;;4.40;99.10;;;;;;5054797;28;20217;-83
2021/01/15 08:42:57;;;;;;;23.55;16.77;;;4.40;99.10;;;;;;5054057;28;20543;-83
2021/01/15 08:45:28;;;;;;;27.27;17.58;;;4.50;98.90;;;;;;5087186;28;20201;-83
2021/01/15 08:47:58;;;;;;;25.83;19.63;;;4.50;98.90;;;;;;5052920;28;20208;-83
2021/01/15 08:50:24;;;;;;;28.55;19.42;;;4.50;98.80;;;;;;5087261;28;20182;-83
2021/01/15 08:52:51;;;;;;;28.80;19.65;;;4.50;98.90;;;;;;5052694;28;20188;-83
2021/01/15 08:55:20;;;;;;;30.38;21.10;;;4.50;98.80;;;;;;5053458;28;20185;-90
2021/01/15 08:57:49;;;;;;;27.40;18.25;;;4.60;99.00;;;;;;5053087;28;20194;-83
2021/01/15 09:00:23;;;;;;;24.75;17.52;;;4.60;98.90;;;;;;5052992;28;20263;-84
2021/01/15 09:02:51;;;;;;;26.40;19.75;;;4.60;98.70;;;;;;5047098;28;20173;-76
2021/01/15 09:05:20;;;;;;;27.55;19.98;;;4.70;98.60;;;;;;5055027;28;20182;-76
2021/01/15 09:07:48;;;;;;;22.63;16.70;;;4.80;98.40;;;;;;5053294;28;20182;-76
2021/01/15 09:10:16;;;;;;;26.98;18.92;;;4.90;98.10;;;;;;5054414;28;20288;-76
2021/01/15 09:12:45;;;;;;;25.45;18.77;;;5.10;97.90;;;;;;5054487;28;20555;-75
2021/01/15 09:15:27;;;;;;;22.20;17.27;;;5.00;97.50;;;;;;5053042;28;20189;-76
2021/01/15 09:17:54;;;;;;;24.70;18.60;;;5.00;97.50;;;;;;5053608;28;20541;-76
2021/01/15 09:20:20;;;;;;;24.85;19.08;;;4.90;97.90;;;;;;5054373;28;20697;-76
2021/01/15 09:22:46;;;;;;;25.23;18.83;;;4.80;97.60;;;;;;5054098;28;20264;-75
2021/01/15 09:25:16;;;;;;;27.60;18.95;;;4.80;98.00;;;;;;5048858;28;20194;-76
2021/01/15 09:27:43;;;;;;;25.17;18.25;;;4.80;98.20;;;;;;5054291;28;20181;-75
2021/01/15 09:30:10;;;;;;;23.10;16.52;;;4.80;97.70;;;;;;5053796;28;20775;-75
2021/01/15 09:32:41;;;;;;;24.38;17.25;;;4.90;97.40;;;;;;5053691;28;20177;-76
2021/01/15 09:35:07;;;;;;;25.63;18.13;;;4.80;97.50;;;;;;5053030;28;20206;-76
2021/01/15 09:37:33;;;;;;;24.88;17.38;;;4.80;97.40;;;;;;5051665;28;20177;-76
2021/01/15 09:39:58;;;;;;;23.80;17.40;;;4.80;97.50;;;;;;5052118;28;20202;-75
2021/01/15 09:42:24;;;;;;;21.90;17.10;;;4.90;97.40;;;;;;5031804;28;20353;-75
2021/01/15 09:44:50;;;;;;;26.33;16.90;;;5.00;97.60;;;;;;5049122;28;20222;-75
2021/01/15 09:47:16;;;;;;;23.33;17.23;;;5.00;97.40;;;;;;5051245;28;20189;-76
2021/01/15 09:49:41;;;;;;;26.33;16.67;;;5.00;97.20;;;;;;5049168;28;20196;-76
2021/01/15 09:52:07;;;;;;;20.83;15.00;;;5.00;97.80;;;;;;5052473;28;20419;-76
2021/01/15 09:54:33;;;;;;;20.00;15.07;;;5.10;96.90;;;;;;5053870;28;20192;-76
2021/01/15 09:56:58;;;;;;;21.97;15.37;;;5.10;96.80;;;;;;5053398;28;20178;-76
2021/01/15 09:59:24;;;;;;;19.27;15.30;;;5.00;96.70;;;;;;5053915;28;20223;-75
2021/01/15 10:01:51;;;;;;;22.57;17.90;;;5.00;96.80;;;;;;5052694;28;20247;-76
2021/01/15 10:04:17;;;;;;;24.85;17.92;;;5.10;96.90;;;;;;5053879;28;20292;-76
2021/01/15 10:06:45;;;;;;;21.03;16.90;;;5.20;96.60;;;;;;5053905;28;20249;-75
2021/01/15 10:09:12;;;;;;;24.48;19.20;;;5.20;96.70;;;;;;5052594;28;20173;-75
2021/01/15 10:11:40;;;;;;;23.83;17.95;;;5.30;96.40;;;;;;5051973;28;20185;-75
2021/01/15 10:14:08;;;;;;;22.67;16.92;;;5.30;96.40;;;;;;5051640;28;20201;-76
2021/01/15 10:16:38;;;;;;;26.00;17.00;;;5.30;96.10;;;;;;5054129;28;20185;-74
2021/01/15 10:19:04;;;;;;;21.42;16.25;;;5.40;96.30;;;;;;5052265;28;20169;-74
2021/01/15 10:21:32;;;;;;;21.10;17.85;;;5.40;96.10;;;;;;5053591;28;20288;-75
2021/01/15 10:23:59;;;;;;;21.17;16.70;;;5.50;96.00;;;;;;5052140;28;20189;-73
2021/01/15 10:26:26;;;;;;;23.83;16.90;;;5.50;96.00;;;;;;5052998;28;20182;-75
2021/01/15 10:28:56;;;;;;;20.17;16.40;;;5.50;96.20;;;;;;5048118;28;20223;-75
2021/01/15 10:31:42;;;;;;;19.00;16.10;;;5.60;95.90;;;;;;5052434;28;20213;-74
2021/01/15 10:34:07;;;;;;;24.83;16.83;;;5.50;95.80;;;;;;5050936;28;20606;-74
2021/01/15 10:36:33;;;;;;;23.37;17.43;;;5.50;96.00;;;;;;5052756;28;20224;-72
2021/01/15 10:38:59;;;;;;;22.80;16.30;;;5.50;96.00;;;;;;5051170;28;20253;-73
2021/01/15 10:41:37;;;;;;;20.90;16.37;;;5.60;95.70;;;;;;5052731;28;20470;-72
2021/01/15 10:44:05;;;;;;;21.95;16.98;;;5.60;95.50;;;;;;5047622;28;20217;-76
2021/01/15 10:46:38;;;;;;;17.17;14.52;;;5.70;95.30;;;;;;5052576;28;20227;-71
2021/01/15 10:49:05;;;;;;;19.13;14.90;;;5.70;95.10;;;;;;5052136;28;20174;-71
2021/01/15 10:51:32;;;;;;;20.63;14.65;;;5.70;95.00;;;;;;5051647;28;20257;-71
2021/01/15 10:53:58;;;;;;;17.45;13.30;;;5.60;95.00;;;;;;5052485;28;20181;-74
2021/01/15 10:56:24;;;;;;;20.42;16.13;;;5.40;95.00;;;;;;5052952;28;20260;-75
2021/01/15 10:58:51;;;;;;;19.07;14.83;;;5.30;95.90;;;;;;5052858;28;20264;-74
2021/01/15 11:01:17;;;;;;;19.75;14.20;;;5.20;95.60;;;;;;5052389;28;20452;-74
2021/01/15 11:03:45;;;;;;;17.23;13.90;;;5.30;95.70;;;;;;5052198;28;20232;-74
2021/01/15 11:06:20;;;;;;;18.00;14.18;;;5.40;95.30;;;;;;5052157;28;20396;-74
2021/01/15 11:08:46;;;;;;;22.27;15.77;;;5.30;95.20;;;;;;5053011;28;20162;-74
2021/01/15 11:11:12;;;;;;;16.57;14.37;;;5.40;95.20;;;;;;5052189;28;20181;-74
2021/01/15 11:13:38;;;;;;;23.63;19.40;;;5.50;95.20;;;;;;5049769;28;20426;-76
2021/01/15 11:16:13;;;;;;;21.97;15.37;;;5.50;95.20;;;;;;5052077;28;20644;-75
2021/01/15 11:18:39;;;;;;;19.65;14.38;;;5.60;94.80;;;;;;5051535;28;20470;-75
2021/01/15 11:21:05;;;;;;;16.33;12.93;;;5.70;95.10;;;;;;5052012;28;20201;-75
2021/01/15 11:23:31;;;;;;;17.13;13.48;;;5.70;94.40;;;;;;5052516;28;20598;-75
2021/01/15 11:25:57;;;;;;;19.15;14.13;;;5.80;93.90;;;;;;5051965;28;20209;-77
2021/01/15 11:28:23;;;;;;;17.73;13.53;;;5.70;94.10;;;;;;5050697;28;20220;-77
2021/01/15 11:30:48;;;;;;;17.00;13.30;;;5.80;94.00;;;;;;5052373;28;20240;-76
2021/01/15 11:33:15;;;;;;;17.60;15.80;;;5.80;93.70;;;;;;5033811;28;20654;-76
2021/01/15 11:35:40;;;;;;;15.45;13.35;;;5.90;93.50;;;;;;5052257;28;20227;-73
2021/01/15 11:38:06;;;;;;;21.03;17.27;;;5.90;93.10;;;;;;5049851;28;20395;-73
2021/01/15 11:40:32;;;;;;;18.00;14.30;;;6.00;93.30;;;;;;5051917;28;20288;-73
2021/01/15 11:42:59;;;;;;;15.57;14.00;;;6.10;93.20;;;;;;5051287;28;20221;-75
2021/01/15 11:45:26;;;;;;;16.15;13.73;;;6.20;92.80;;;;;;5048963;28;20752;-75
2021/01/15 11:47:53;;;;;;;16.73;14.60;;;6.20;92.40;;;;;;5051990;28;20257;-75
2021/01/15 11:50:20;;;;;;;17.20;14.45;;;6.30;91.70;;;;;;5052121;28;20325;-75
2021/01/15 11:52:46;;;;;;;15.85;13.00;;;6.40;91.90;;;;;;5061474;28;20185;-75
2021/01/15 11:55:13;;;;;;;15.63;12.97;;;6.30;91.90;;;;;;5071573;28;20173;-75
2021/01/15 11:57:40;;;;;;;14.60;12.85;;;6.40;92.20;;;;;;5071967;28;20212;-74
2021/01/15 12:00:07;;;;;;;17.88;15.98;;;6.40;91.50;;;;;;5071552;28;20208;-75
2021/01/15 12:02:33;;;;;;;16.07;13.80;;;6.40;90.80;;;;;;5064336;28;20182;-75
2021/01/15 12:04:59;;;;;;;18.02;14.75;;;6.50;90.90;;;;;;5051447;28;20466;-76
2021/01/15 12:07:28;;;;;;;15.03;11.83;;;6.50;91.10;;;;;;5052123;28;20315;-75
2021/01/15 12:09:54;;;;;;;15.40;13.73;;;6.50;91.40;;;;;;5051954;28;20831;-75
2021/01/15 12:12:20;;;;;;;17.00;12.80;;;6.60;91.20;;;;;;5051652;28;20466;-77
2021/01/15 12:14:46;;;;;;;16.13;13.83;;;6.60;90.80;;;;;;5048872;28;20425;-76
2021/01/15 12:17:11;;;;;;;15.00;12.83;;;6.60;90.70;;;;;;5051145;28;20185;-73
2021/01/15 12:19:37;;;;;;;16.67;14.90;;;6.60;91.10;;;;;;5050215;28;20272;-73
2021/01/15 12:22:03;;;;;;;14.47;12.97;;;6.60;91.30;;;;;;5051276;28;20506;-73
2021/01/15 12:24:28;;;;;;;14.77;12.27;;;6.60;90.90;;;;;;5051925;28;20253;-72
2021/01/15 12:26:59;;;;;;;13.57;11.53;;;6.60;90.70;;;;;;5051793;28;20178;-73
2021/01/15 12:29:25;;;;;;;12.90;11.43;;;6.70;90.50;;;;;;5051502;28;20170;-73
2021/01/15 12:31:57;;;;;;;16.88;13.15;;;6.70;90.60;;;;;;5050096;28;20508;-74
2021/01/15 12:34:24;;;;;;;13.90;12.25;;;6.60;90.30;;;;;;5050418;28;20178;-73
2021/01/15 12:36:49;;;;;;;12.63;11.27;;;6.70;90.50;;;;;;5049185;28;20170;-73
2021/01/15 12:39:15;;;;;;;15.13;11.70;;;6.60;90.70;;;;;;5050506;28;20682;-76
2021/01/15 12:41:41;;;;;;;13.50;11.70;;;6.60;91.00;;;;;;5060843;28;20468;-76
2021/01/15 12:44:07;;;;;;;15.97;12.53;;;6.50;90.60;;;;;;5054055;28;20229;-81
2021/01/15 12:46:33;;;;;;;16.53;13.30;;;6.40;90.80;;;;;;5081383;28;20622;-80
2021/01/15 12:48:59;;;;;;;15.30;12.55;;;6.40;90.80;;;;;;5088409;28;20180;-80
2021/01/15 12:51:25;;;;;;;15.47;12.30;;;6.40;91.00;;;;;;5088172;28;20249;-80
2021/01/15 12:53:50;;;;;;;16.30;13.07;;;6.40;91.60;;;;;;5054999;28;20166;-79